sensor_id;sensor_type;location;lat;lon;timestamp;temperature;humidity
71155;DHT22;59375;53.216;5.728;2023-04-26T00:00:16;4.40;99.90
71155;DHT22;59375;53.216;5.728;2023-04-26T00:02:42;4.40;99.90
71155;DHT22;59375;53.216;5.728;2023-04-26T00:05:07;4.50;99.90
71155;DHT22;59375;53.216;5.728;2023-04-26T00:07:33;4.60;99.90
71155;DHT22;59375;53.216;5.728;2023-04-26T00:09:58;4.60;99.90
71155;DHT22;59375;53.216;5.728;2023-04-26T00:12:24;4.70;99.90
71155;DHT22;59375;53.216;5.728;2023-04-26T00:14:49;4.80;99.90
71155;DHT22;59375;53.216;5.728;2023-04-26T00:17:15;4.90;99.90
71155;DHT22;59375;53.216;5.728;2023-04-26T00:19:40;5.00;99.90
71155;DHT22;59375;53.216;5.728;2023-04-26T00:22:06;5.10;99.90
71155;DHT22;59375;53.216;5.728;2023-04-26T00:24:33;5.10;99.90
71155;DHT22;59375;53.216;5.728;2023-04-26T00:26:58;5.10;99.90
71155;DHT22;59375;53.216;5.728;2023-04-26T00:29:24;5.10;99.90
71155;DHT22;59375;53.216;5.728;2023-04-26T00:31:50;5.20;99.90
71155;DHT22;59375;53.216;5.728;2023-04-26T00:34:15;5.20;99.90
71155;DHT22;59375;53.216;5.728;2023-04-26T00:36:41;5.10;99.90
71155;DHT22;59375;53.216;5.728;2023-04-26T00:39:06;5.10;99.90
71155;DHT22;59375;53.216;5.728;2023-04-26T00:41:33;5.10;99.90
71155;DHT22;59375;53.216;5.728;2023-04-26T00:43:59;5.10;99.90
71155;DHT22;59375;53.216;5.728;2023-04-26T00:46:24;5.00;99.90
71155;DHT22;59375;53.216;5.728;2023-04-26T00:48:50;5.00;99.90
71155;DHT22;59375;53.216;5.728;2023-04-26T00:51:16;5.00;99.90
71155;DHT22;59375;53.216;5.728;2023-04-26T00:53:41;5.00;99.90
71155;DHT22;59375;53.216;5.728;2023-04-26T00:56:08;5.00;99.90
71155;DHT22;59375;53.216;5.728;2023-04-26T00:58:33;5.00;99.90
71155;DHT22;59375;53.216;5.728;2023-04-26T01:00:59;5.00;99.90
71155;DHT22;59375;53.216;5.728;2023-04-26T01:03:25;5.00;99.90
71155;DHT22;59375;53.216;5.728;2023-04-26T01:05:51;4.90;99.90
71155;DHT22;59375;53.216;5.728;2023-04-26T01:08:16;4.90;99.90
71155;DHT22;59375;53.216;5.728;2023-04-26T01:10:48;4.90;99.90
71155;DHT22;59375;53.216;5.728;2023-04-26T01:13:14;5.00;99.90
71155;DHT22;59375;53.216;5.728;2023-04-26T01:15:42;4.90;99.90
71155;DHT22;59375;53.216;5.728;2023-04-26T01:18:08;4.90;99.90
71155;DHT22;59375;53.216;5.728;2023-04-26T01:20:33;4.90;99.90
71155;DHT22;59375;53.216;5.728;2023-04-26T01:22:59;4.90;99.90
71155;DHT22;59375;53.216;5.728;2023-04-26T01:25:24;4.90;99.90
71155;DHT22;59375;53.216;5.728;2023-04-26T01:27:50;4.90;99.90
71155;DHT22;59375;53.216;5.728;2023-04-26T01:30:15;4.90;99.90
71155;DHT22;59375;53.216;5.728;2023-04-26T01:32:41;4.90;99.90
71155;DHT22;59375;53.216;5.728;2023-04-26T01:35:07;4.80;99.90
71155;DHT22;59375;53.216;5.728;2023-04-26T01:37:32;4.80;99.90
71155;DHT22;59375;53.216;5.728;2023-04-26T01:39:57;4.80;99.90
71155;DHT22;59375;53.216;5.728;2023-04-26T01:42:23;4.80;99.90
71155;DHT22;59375;53.216;5.728;2023-04-26T01:44:48;4.80;99.90
71155;DHT22;59375;53.216;5.728;2023-04-26T01:47:14;4.80;99.90
71155;DHT22;59375;53.216;5.728;2023-04-26T01:49:39;4.90;99.90
71155;DHT22;59375;53.216;5.728;2023-04-26T01:52:05;4.80;99.90
71155;DHT22;59375;53.216;5.728;2023-04-26T01:54:31;4.80;99.90
71155;DHT22;59375;53.216;5.728;2023-04-26T01:56:56;4.80;99.90
71155;DHT22;59375;53.216;5.728;2023-04-26T01:59:22;4.80;99.90
71155;DHT22;59375;53.216;5.728;2023-04-26T02:01:47;4.80;99.90
71155;DHT22;59375;53.216;5.728;2023-04-26T02:04:13;4.80;99.90
71155;DHT22;59375;53.216;5.728;2023-04-26T02:06:38;4.70;99.90
71155;DHT22;59375;53.216;5.728;2023-04-26T02:09:05;4.70;99.90
71155;DHT22;59375;53.216;5.728;2023-04-26T02:11:33;4.60;99.90
71155;DHT22;59375;53.216;5.728;2023-04-26T02:13:58;4.60;99.90
71155;DHT22;59375;53.216;5.728;2023-04-26T02:16:24;4.60;99.90
71155;DHT22;59375;53.216;5.728;2023-04-26T02:18:49;4.50;99.90
71155;DHT22;59375;53.216;5.728;2023-04-26T02:21:15;4.40;99.90
71155;DHT22;59375;53.216;5.728;2023-04-26T02:23:41;4.40;99.90
71155;DHT22;59375;53.216;5.728;2023-04-26T02:26:07;4.40;99.90
71155;DHT22;59375;53.216;5.728;2023-04-26T02:28:32;4.40;99.90
71155;DHT22;59375;53.216;5.728;2023-04-26T02:30:58;4.40;99.90
71155;DHT22;59375;53.216;5.728;2023-04-26T02:33:23;4.40;99.90
71155;DHT22;59375;53.216;5.728;2023-04-26T02:35:49;4.40;99.90
71155;DHT22;59375;53.216;5.728;2023-04-26T02:38:14;4.30;99.90
71155;DHT22;59375;53.216;5.728;2023-04-26T02:40:40;4.30;99.90
71155;DHT22;59375;53.216;5.728;2023-04-26T02:43:05;4.30;99.90
71155;DHT22;59375;53.216;5.728;2023-04-26T02:45:31;4.30;99.90
71155;DHT22;59375;53.216;5.728;2023-04-26T02:47:56;4.30;99.90
71155;DHT22;59375;53.216;5.728;2023-04-26T02:50:22;4.20;99.90
71155;DHT22;59375;53.216;5.728;2023-04-26T02:52:48;4.20;99.90
71155;DHT22;59375;53.216;5.728;2023-04-26T02:55:13;4.10;99.90
71155;DHT22;59375;53.216;5.728;2023-04-26T02:57:38;4.10;99.90
71155;DHT22;59375;53.216;5.728;2023-04-26T03:00:04;4.10;99.90
71155;DHT22;59375;53.216;5.728;2023-04-26T03:02:31;4.10;99.90
71155;DHT22;59375;53.216;5.728;2023-04-26T03:04:56;4.10;99.90
71155;DHT22;59375;53.216;5.728;2023-04-26T03:07:22;4.10;99.90
71155;DHT22;59375;53.216;5.728;2023-04-26T03:09:47;4.10;99.90
71155;DHT22;59375;53.216;5.728;2023-04-26T03:12:13;4.20;99.90
71155;DHT22;59375;53.216;5.728;2023-04-26T03:14:38;4.20;99.90
71155;DHT22;59375;53.216;5.728;2023-04-26T03:17:03;4.30;99.90
71155;DHT22;59375;53.216;5.728;2023-04-26T03:19:29;4.30;99.90
71155;DHT22;59375;53.216;5.728;2023-04-26T03:21:54;4.30;99.90
71155;DHT22;59375;53.216;5.728;2023-04-26T03:24:20;4.40;99.90
71155;DHT22;59375;53.216;5.728;2023-04-26T03:26:45;4.40;99.90
71155;DHT22;59375;53.216;5.728;2023-04-26T03:29:11;4.50;99.90
71155;DHT22;59375;53.216;5.728;2023-04-26T03:31:36;4.60;99.90
71155;DHT22;59375;53.216;5.728;2023-04-26T03:34:04;4.60;99.90
71155;DHT22;59375;53.216;5.728;2023-04-26T03:36:29;4.60;99.90
71155;DHT22;59375;53.216;5.728;2023-04-26T03:38:55;4.70;99.90
71155;DHT22;59375;53.216;5.728;2023-04-26T03:41:21;4.70;99.90
71155;DHT22;59375;53.216;5.728;2023-04-26T03:43:47;4.70;99.90
71155;DHT22;59375;53.216;5.728;2023-04-26T03:46:12;4.70;99.90
71155;DHT22;59375;53.216;5.728;2023-04-26T03:48:39;4.70;99.90
71155;DHT22;59375;53.216;5.728;2023-04-26T03:51:06;4.60;99.90
71155;DHT22;59375;53.216;5.728;2023-04-26T03:53:31;4.60;99.90
71155;DHT22;59375;53.216;5.728;2023-04-26T03:55:57;4.60;99.90
71155;DHT22;59375;53.216;5.728;2023-04-26T03:58:25;4.60;99.90
71155;DHT22;59375;53.216;5.728;2023-04-26T04:00:51;4.60;99.90
71155;DHT22;59375;53.216;5.728;2023-04-26T04:03:16;4.60;99.90
71155;DHT22;59375;53.216;5.728;2023-04-26T04:05:42;4.60;99.90
71155;DHT22;59375;53.216;5.728;2023-04-26T04:08:07;4.50;99.90
71155;DHT22;59375;53.216;5.728;2023-04-26T04:10:33;4.50;99.90
71155;DHT22;59375;53.216;5.728;2023-04-26T04:12:58;4.50;99.90
71155;DHT22;59375;53.216;5.728;2023-04-26T04:15:24;4.40;99.90
71155;DHT22;59375;53.216;5.728;2023-04-26T04:17:49;4.30;99.90
71155;DHT22;59375;53.216;5.728;2023-04-26T04:20:15;4.20;99.90
71155;DHT22;59375;53.216;5.728;2023-04-26T04:22:40;4.20;99.90
71155;DHT22;59375;53.216;5.728;2023-04-26T04:25:06;4.10;99.90
71155;DHT22;59375;53.216;5.728;2023-04-26T04:27:32;4.00;99.90
71155;DHT22;59375;53.216;5.728;2023-04-26T04:29:57;3.90;99.90
71155;DHT22;59375;53.216;5.728;2023-04-26T04:32:23;3.90;99.90
71155;DHT22;59375;53.216;5.728;2023-04-26T04:34:49;3.90;99.90
71155;DHT22;59375;53.216;5.728;2023-04-26T04:37:16;3.80;99.90
71155;DHT22;59375;53.216;5.728;2023-04-26T04:39:42;3.70;99.90
71155;DHT22;59375;53.216;5.728;2023-04-26T04:42:08;3.70;99.90
71155;DHT22;59375;53.216;5.728;2023-04-26T04:44:34;3.70;99.90
71155;DHT22;59375;53.216;5.728;2023-04-26T04:47:01;3.70;99.90
71155;DHT22;59375;53.216;5.728;2023-04-26T04:49:26;3.70;99.90
71155;DHT22;59375;53.216;5.728;2023-04-26T04:51:52;3.80;99.90
71155;DHT22;59375;53.216;5.728;2023-04-26T04:54:17;3.80;99.90
71155;DHT22;59375;53.216;5.728;2023-04-26T04:56:43;3.80;99.90
71155;DHT22;59375;53.216;5.728;2023-04-26T04:59:09;3.90;99.90
71155;DHT22;59375;53.216;5.728;2023-04-26T05:01:35;3.90;99.90
71155;DHT22;59375;53.216;5.728;2023-04-26T05:04:01;3.90;99.90
71155;DHT22;59375;53.216;5.728;2023-04-26T05:06:27;3.90;99.90
71155;DHT22;59375;53.216;5.728;2023-04-26T05:08:53;4.00;99.90
71155;DHT22;59375;53.216;5.728;2023-04-26T05:11:19;4.00;99.90
71155;DHT22;59375;53.216;5.728;2023-04-26T05:13:45;4.00;99.90
71155;DHT22;59375;53.216;5.728;2023-04-26T05:16:11;4.00;99.90
71155;DHT22;59375;53.216;5.728;2023-04-26T05:18:37;4.00;99.90
71155;DHT22;59375;53.216;5.728;2023-04-26T05:21:02;4.10;99.90
71155;DHT22;59375;53.216;5.728;2023-04-26T05:23:27;4.20;99.90
71155;DHT22;59375;53.216;5.728;2023-04-26T05:25:53;4.30;99.90
71155;DHT22;59375;53.216;5.728;2023-04-26T05:28:18;4.40;99.90
71155;DHT22;59375;53.216;5.728;2023-04-26T05:30:44;4.50;99.90
71155;DHT22;59375;53.216;5.728;2023-04-26T05:33:10;4.70;99.90
71155;DHT22;59375;53.216;5.728;2023-04-26T05:35:35;4.80;99.90
71155;DHT22;59375;53.216;5.728;2023-04-26T05:38:01;5.00;99.90
71155;DHT22;59375;53.216;5.728;2023-04-26T05:40:26;5.00;99.90
71155;DHT22;59375;53.216;5.728;2023-04-26T05:42:52;5.10;99.90
71155;DHT22;59375;53.216;5.728;2023-04-26T05:45:17;5.20;99.90
71155;DHT22;59375;53.216;5.728;2023-04-26T05:47:42;5.40;99.90
71155;DHT22;59375;53.216;5.728;2023-04-26T05:50:08;5.60;99.90
71155;DHT22;59375;53.216;5.728;2023-04-26T05:52:34;5.80;99.90
71155;DHT22;59375;53.216;5.728;2023-04-26T05:54:59;5.80;99.90
71155;DHT22;59375;53.216;5.728;2023-04-26T05:57:28;5.90;99.90
71155;DHT22;59375;53.216;5.728;2023-04-26T05:59:54;5.90;99.90
71155;DHT22;59375;53.216;5.728;2023-04-26T06:02:19;5.90;99.90
71155;DHT22;59375;53.216;5.728;2023-04-26T06:04:45;5.90;99.90
71155;DHT22;59375;53.216;5.728;2023-04-26T06:07:10;6.00;99.90
71155;DHT22;59375;53.216;5.728;2023-04-26T06:09:36;6.10;99.90
71155;DHT22;59375;53.216;5.728;2023-04-26T06:12:01;6.30;99.90
71155;DHT22;59375;53.216;5.728;2023-04-26T06:14:28;6.40;99.90
71155;DHT22;59375;53.216;5.728;2023-04-26T06:16:54;6.50;99.90
71155;DHT22;59375;53.216;5.728;2023-04-26T06:19:20;6.60;99.90
71155;DHT22;59375;53.216;5.728;2023-04-26T06:21:45;6.70;99.90
71155;DHT22;59375;53.216;5.728;2023-04-26T06:24:11;7.10;99.90
71155;DHT22;59375;53.216;5.728;2023-04-26T06:26:36;7.30;99.90
71155;DHT22;59375;53.216;5.728;2023-04-26T06:29:02;7.50;99.90
71155;DHT22;59375;53.216;5.728;2023-04-26T06:31:27;7.50;99.90
71155;DHT22;59375;53.216;5.728;2023-04-26T06:33:53;7.50;99.90
71155;DHT22;59375;53.216;5.728;2023-04-26T06:36:18;7.50;99.90
71155;DHT22;59375;53.216;5.728;2023-04-26T06:38:44;7.40;99.90
71155;DHT22;59375;53.216;5.728;2023-04-26T06:41:09;7.40;99.90
71155;DHT22;59375;53.216;5.728;2023-04-26T06:43:35;7.30;99.90
71155;DHT22;59375;53.216;5.728;2023-04-26T06:46:00;7.20;99.90
71155;DHT22;59375;53.216;5.728;2023-04-26T06:48:26;7.20;99.90
71155;DHT22;59375;53.216;5.728;2023-04-26T06:50:51;7.20;99.90
71155;DHT22;59375;53.216;5.728;2023-04-26T06:53:17;7.20;99.90
71155;DHT22;59375;53.216;5.728;2023-04-26T06:55:42;7.30;99.90
71155;DHT22;59375;53.216;5.728;2023-04-26T06:58:08;7.70;99.90
71155;DHT22;59375;53.216;5.728;2023-04-26T07:00:35;8.40;99.90
71155;DHT22;59375;53.216;5.728;2023-04-26T07:03:00;9.00;99.90
71155;DHT22;59375;53.216;5.728;2023-04-26T07:05:26;9.40;99.90
71155;DHT22;59375;53.216;5.728;2023-04-26T07:07:51;9.60;99.90
71155;DHT22;59375;53.216;5.728;2023-04-26T07:10:17;9.70;99.90
71155;DHT22;59375;53.216;5.728;2023-04-26T07:12:42;9.70;99.90
71155;DHT22;59375;53.216;5.728;2023-04-26T07:15:08;9.70;99.90
71155;DHT22;59375;53.216;5.728;2023-04-26T07:17:33;9.70;99.90
71155;DHT22;59375;53.216;5.728;2023-04-26T07:19:59;9.80;99.90
71155;DHT22;59375;53.216;5.728;2023-04-26T07:22:25;9.80;99.90
71155;DHT22;59375;53.216;5.728;2023-04-26T07:24:50;9.60;99.90
71155;DHT22;59375;53.216;5.728;2023-04-26T07:27:16;9.50;99.90
71155;DHT22;59375;53.216;5.728;2023-04-26T07:29:41;9.40;99.90
71155;DHT22;59375;53.216;5.728;2023-04-26T07:32:07;9.40;99.90
71155;DHT22;59375;53.216;5.728;2023-04-26T07:34:33;9.40;99.90
71155;DHT22;59375;53.216;5.728;2023-04-26T07:36:58;9.40;99.90
71155;DHT22;59375;53.216;5.728;2023-04-26T07:39:23;9.50;99.90
71155;DHT22;59375;53.216;5.728;2023-04-26T07:41:49;9.30;99.90
71155;DHT22;59375;53.216;5.728;2023-04-26T07:44:15;9.00;99.90
71155;DHT22;59375;53.216;5.728;2023-04-26T07:46:40;8.60;99.90
71155;DHT22;59375;53.216;5.728;2023-04-26T07:49:05;8.60;99.90
71155;DHT22;59375;53.216;5.728;2023-04-26T07:51:31;8.60;99.90
71155;DHT22;59375;53.216;5.728;2023-04-26T07:53:57;8.70;99.90
71155;DHT22;59375;53.216;5.728;2023-04-26T07:56:23;8.60;99.90
71155;DHT22;59375;53.216;5.728;2023-04-26T07:58:49;8.50;99.90
71155;DHT22;59375;53.216;5.728;2023-04-26T08:01:15;8.40;99.90
71155;DHT22;59375;53.216;5.728;2023-04-26T08:03:40;8.10;99.90
71155;DHT22;59375;53.216;5.728;2023-04-26T08:06:06;7.90;99.90
71155;DHT22;59375;53.216;5.728;2023-04-26T08:08:33;7.60;99.90
71155;DHT22;59375;53.216;5.728;2023-04-26T08:10:59;7.50;99.90
71155;DHT22;59375;53.216;5.728;2023-04-26T08:13:25;7.50;99.90
71155;DHT22;59375;53.216;5.728;2023-04-26T08:15:50;7.50;99.90
71155;DHT22;59375;53.216;5.728;2023-04-26T08:18:16;7.50;99.90
71155;DHT22;59375;53.216;5.728;2023-04-26T08:20:41;7.60;99.90
71155;DHT22;59375;53.216;5.728;2023-04-26T08:23:07;7.70;99.90
71155;DHT22;59375;53.216;5.728;2023-04-26T08:25:32;7.90;99.90
71155;DHT22;59375;53.216;5.728;2023-04-26T08:27:59;8.20;99.90
71155;DHT22;59375;53.216;5.728;2023-04-26T08:30:24;8.60;99.90
71155;DHT22;59375;53.216;5.728;2023-04-26T08:32:50;8.90;99.90
71155;DHT22;59375;53.216;5.728;2023-04-26T08:35:17;9.10;99.90
71155;DHT22;59375;53.216;5.728;2023-04-26T08:37:42;9.50;99.90
71155;DHT22;59375;53.216;5.728;2023-04-26T08:40:08;9.80;99.90
71155;DHT22;59375;53.216;5.728;2023-04-26T08:42:39;10.10;99.90
71155;DHT22;59375;53.216;5.728;2023-04-26T08:45:06;10.20;99.90
71155;DHT22;59375;53.216;5.728;2023-04-26T08:47:42;10.20;99.90
71155;DHT22;59375;53.216;5.728;2023-04-26T08:50:09;10.30;99.90
71155;DHT22;59375;53.216;5.728;2023-04-26T08:52:35;10.30;99.90
71155;DHT22;59375;53.216;5.728;2023-04-26T08:55:01;10.20;99.90
71155;DHT22;59375;53.216;5.728;2023-04-26T08:57:30;10.00;99.90
71155;DHT22;59375;53.216;5.728;2023-04-26T08:59:55;9.70;99.90
71155;DHT22;59375;53.216;5.728;2023-04-26T09:02:22;9.70;99.90
71155;DHT22;59375;53.216;5.728;2023-04-26T09:04:49;9.70;99.90
71155;DHT22;59375;53.216;5.728;2023-04-26T09:07:18;9.80;99.90
71155;DHT22;59375;53.216;5.728;2023-04-26T09:09:45;10.00;99.90
71155;DHT22;59375;53.216;5.728;2023-04-26T09:12:12;10.10;99.90
71155;DHT22;59375;53.216;5.728;2023-04-26T09:14:37;10.00;99.90
71155;DHT22;59375;53.216;5.728;2023-04-26T09:17:04;9.90;99.90
71155;DHT22;59375;53.216;5.728;2023-04-26T09:19:34;9.70;99.90
71155;DHT22;59375;53.216;5.728;2023-04-26T09:22:00;9.60;99.90
71155;DHT22;59375;53.216;5.728;2023-04-26T09:24:25;9.40;99.90
71155;DHT22;59375;53.216;5.728;2023-04-26T09:27:00;9.20;99.90
71155;DHT22;59375;53.216;5.728;2023-04-26T09:29:27;9.10;99.90
71155;DHT22;59375;53.216;5.728;2023-04-26T09:31:52;9.10;99.90
71155;DHT22;59375;53.216;5.728;2023-04-26T09:34:18;9.30;99.90
71155;DHT22;59375;53.216;5.728;2023-04-26T09:36:47;9.60;99.90
71155;DHT22;59375;53.216;5.728;2023-04-26T09:39:13;10.00;99.90
71155;DHT22;59375;53.216;5.728;2023-04-26T09:41:42;10.10;99.90
71155;DHT22;59375;53.216;5.728;2023-04-26T09:44:21;10.10;99.90
71155;DHT22;59375;53.216;5.728;2023-04-26T09:49:26;10.10;99.90
71155;DHT22;59375;53.216;5.728;2023-04-26T09:51:58;10.30;99.90
71155;DHT22;59375;53.216;5.728;2023-04-26T09:54:36;10.60;99.90
71155;DHT22;59375;53.216;5.728;2023-04-26T09:57:02;11.10;99.90
71155;DHT22;59375;53.216;5.728;2023-04-26T09:59:37;11.70;99.90
71155;DHT22;59375;53.216;5.728;2023-04-26T10:02:03;12.00;99.90
71155;DHT22;59375;53.216;5.728;2023-04-26T10:04:30;11.90;99.90
71155;DHT22;59375;53.216;5.728;2023-04-26T10:06:56;12.10;99.90
71155;DHT22;59375;53.216;5.728;2023-04-26T10:09:21;12.50;99.90
71155;DHT22;59375;53.216;5.728;2023-04-26T10:11:47;12.90;99.90
71155;DHT22;59375;53.216;5.728;2023-04-26T10:14:13;13.10;99.90
71155;DHT22;59375;53.216;5.728;2023-04-26T10:16:38;13.20;99.90
71155;DHT22;59375;53.216;5.728;2023-04-26T10:19:05;13.50;99.90
71155;DHT22;59375;53.216;5.728;2023-04-26T10:21:33;13.90;99.90
71155;DHT22;59375;53.216;5.728;2023-04-26T10:24:00;14.10;99.90
71155;DHT22;59375;53.216;5.728;2023-04-26T10:29:11;13.50;99.90
71155;DHT22;59375;53.216;5.728;2023-04-26T10:34:20;12.50;99.90
71155;DHT22;59375;53.216;5.728;2023-04-26T10:37:19;12.00;99.90
71155;DHT22;59375;53.216;5.728;2023-04-26T10:39:41;11.70;99.90
71155;DHT22;59375;53.216;5.728;2023-04-26T10:42:19;11.50;99.90
71155;DHT22;59375;53.216;5.728;2023-04-26T10:44:48;11.30;99.90
71155;DHT22;59375;53.216;5.728;2023-04-26T10:47:30;11.20;99.90
71155;DHT22;59375;53.216;5.728;2023-04-26T10:50:03;11.10;99.90
71155;DHT22;59375;53.216;5.728;2023-04-26T10:52:29;11.20;99.90
71155;DHT22;59375;53.216;5.728;2023-04-26T10:54:56;11.40;99.90
71155;DHT22;59375;53.216;5.728;2023-04-26T10:57:22;11.70;99.90
71155;DHT22;59375;53.216;5.728;2023-04-26T11:02:54;11.70;99.90
71155;DHT22;59375;53.216;5.728;2023-04-26T11:10:29;11.70;99.90
71155;DHT22;59375;53.216;5.728;2023-04-26T11:12:58;11.80;99.90
71155;DHT22;59375;53.216;5.728;2023-04-26T11:15:25;11.90;99.90
71155;DHT22;59375;53.216;5.728;2023-04-26T11:17:50;11.80;99.90
71155;DHT22;59375;53.216;5.728;2023-04-26T11:20:16;11.80;99.90
71155;DHT22;59375;53.216;5.728;2023-04-26T11:22:41;11.80;99.90
71155;DHT22;59375;53.216;5.728;2023-04-26T11:25:06;12.00;99.90
71155;DHT22;59375;53.216;5.728;2023-04-26T11:27:33;12.10;99.90
71155;DHT22;59375;53.216;5.728;2023-04-26T11:30:01;12.60;99.90
71155;DHT22;59375;53.216;5.728;2023-04-26T11:32:27;13.10;99.90
71155;DHT22;59375;53.216;5.728;2023-04-26T11:34:52;13.80;99.90
71155;DHT22;59375;53.216;5.728;2023-04-26T11:37:18;14.20;99.90
71155;DHT22;59375;53.216;5.728;2023-04-26T11:39:44;14.20;99.90
71155;DHT22;59375;53.216;5.728;2023-04-26T11:42:10;14.00;99.90
71155;DHT22;59375;53.216;5.728;2023-04-26T11:44:36;13.90;99.90
71155;DHT22;59375;53.216;5.728;2023-04-26T11:47:02;14.30;99.90
71155;DHT22;59375;53.216;5.728;2023-04-26T11:49:28;14.80;99.90
71155;DHT22;59375;53.216;5.728;2023-04-26T11:51:54;15.20;99.90
71155;DHT22;59375;53.216;5.728;2023-04-26T11:54:30;15.10;98.20
71155;DHT22;59375;53.216;5.728;2023-04-26T11:56:57;14.90;99.60
71155;DHT22;59375;53.216;5.728;2023-04-26T11:59:26;14.90;98.50
71155;DHT22;59375;53.216;5.728;2023-04-26T12:01:52;14.80;97.50
71155;DHT22;59375;53.216;5.728;2023-04-26T12:04:17;14.60;99.90
71155;DHT22;59375;53.216;5.728;2023-04-26T12:06:44;14.70;98.60
71155;DHT22;59375;53.216;5.728;2023-04-26T12:09:09;14.60;99.30
71155;DHT22;59375;53.216;5.728;2023-04-26T12:11:38;14.20;99.00
71155;DHT22;59375;53.216;5.728;2023-04-26T12:14:04;13.70;99.70
71155;DHT22;59375;53.216;5.728;2023-04-26T12:16:30;13.80;99.80
71155;DHT22;59375;53.216;5.728;2023-04-26T12:18:57;13.70;99.90
71155;DHT22;59375;53.216;5.728;2023-04-26T12:21:23;13.50;99.90
71155;DHT22;59375;53.216;5.728;2023-04-26T12:23:50;13.20;99.90
71155;DHT22;59375;53.216;5.728;2023-04-26T12:26:16;12.30;99.90
71155;DHT22;59375;53.216;5.728;2023-04-26T12:28:42;11.50;99.90
71155;DHT22;59375;53.216;5.728;2023-04-26T12:31:07;10.70;99.90
71155;DHT22;59375;53.216;5.728;2023-04-26T12:33:33;10.30;99.90
71155;DHT22;59375;53.216;5.728;2023-04-26T12:36:05;10.00;99.90
71155;DHT22;59375;53.216;5.728;2023-04-26T12:38:31;9.80;99.90
71155;DHT22;59375;53.216;5.728;2023-04-26T12:40:56;9.80;99.90
71155;DHT22;59375;53.216;5.728;2023-04-26T12:43:22;10.00;99.90
71155;DHT22;59375;53.216;5.728;2023-04-26T12:45:50;10.40;99.90
71155;DHT22;59375;53.216;5.728;2023-04-26T12:48:15;10.90;99.90
71155;DHT22;59375;53.216;5.728;2023-04-26T12:50:41;11.40;99.90
71155;DHT22;59375;53.216;5.728;2023-04-26T12:53:06;11.50;99.90
71155;DHT22;59375;53.216;5.728;2023-04-26T12:55:32;11.80;99.90
71155;DHT22;59375;53.216;5.728;2023-04-26T12:57:57;12.10;99.90
71155;DHT22;59375;53.216;5.728;2023-04-26T13:00:23;12.20;99.90
71155;DHT22;59375;53.216;5.728;2023-04-26T13:02:49;12.20;99.90
71155;DHT22;59375;53.216;5.728;2023-04-26T13:05:14;12.20;99.90
71155;DHT22;59375;53.216;5.728;2023-04-26T13:07:41;12.10;99.90
71155;DHT22;59375;53.216;5.728;2023-04-26T13:10:07;12.30;99.90
71155;DHT22;59375;53.216;5.728;2023-04-26T13:12:35;12.40;99.90
71155;DHT22;59375;53.216;5.728;2023-04-26T13:15:00;12.60;99.90
71155;DHT22;59375;53.216;5.728;2023-04-26T13:17:26;12.30;99.90
71155;DHT22;59375;53.216;5.728;2023-04-26T13:19:51;12.10;99.90
71155;DHT22;59375;53.216;5.728;2023-04-26T13:22:17;12.00;99.90
71155;DHT22;59375;53.216;5.728;2023-04-26T13:24:43;11.90;99.90
71155;DHT22;59375;53.216;5.728;2023-04-26T13:27:08;11.90;99.90
71155;DHT22;59375;53.216;5.728;2023-04-26T13:29:35;11.70;99.90
71155;DHT22;59375;53.216;5.728;2023-04-26T13:32:00;11.80;99.90
71155;DHT22;59375;53.216;5.728;2023-04-26T13:34:27;11.90;99.90
71155;DHT22;59375;53.216;5.728;2023-04-26T13:36:53;11.90;99.90
71155;DHT22;59375;53.216;5.728;2023-04-26T13:39:21;11.90;99.90
71155;DHT22;59375;53.216;5.728;2023-04-26T13:41:47;11.90;99.90
71155;DHT22;59375;53.216;5.728;2023-04-26T13:44:13;12.00;99.90
71155;DHT22;59375;53.216;5.728;2023-04-26T13:46:40;12.00;99.90
71155;DHT22;59375;53.216;5.728;2023-04-26T13:49:05;12.00;99.90
71155;DHT22;59375;53.216;5.728;2023-04-26T13:51:31;12.20;99.90
71155;DHT22;59375;53.216;5.728;2023-04-26T13:53:58;12.30;99.90
71155;DHT22;59375;53.216;5.728;2023-04-26T13:56:24;12.20;99.90
71155;DHT22;59375;53.216;5.728;2023-04-26T13:58:53;12.20;99.90
71155;DHT22;59375;53.216;5.728;2023-04-26T14:01:19;12.40;99.90
71155;DHT22;59375;53.216;5.728;2023-04-26T14:03:45;12.30;99.90
71155;DHT22;59375;53.216;5.728;2023-04-26T14:06:10;12.20;99.90
71155;DHT22;59375;53.216;5.728;2023-04-26T14:08:35;12.00;99.90
71155;DHT22;59375;53.216;5.728;2023-04-26T14:11:01;11.80;99.90
71155;DHT22;59375;53.216;5.728;2023-04-26T14:13:27;11.50;99.90
71155;DHT22;59375;53.216;5.728;2023-04-26T14:15:52;11.20;99.90
71155;DHT22;59375;53.216;5.728;2023-04-26T14:18:18;11.30;99.90
71155;DHT22;59375;53.216;5.728;2023-04-26T14:20:43;11.20;99.90
71155;DHT22;59375;53.216;5.728;2023-04-26T14:23:08;11.40;99.90
71155;DHT22;59375;53.216;5.728;2023-04-26T14:25:34;11.40;99.90
71155;DHT22;59375;53.216;5.728;2023-04-26T14:28:00;11.30;99.90
71155;DHT22;59375;53.216;5.728;2023-04-26T14:30:26;11.10;99.90
71155;DHT22;59375;53.216;5.728;2023-04-26T14:32:52;10.70;99.90
71155;DHT22;59375;53.216;5.728;2023-04-26T14:35:17;10.40;99.90
71155;DHT22;59375;53.216;5.728;2023-04-26T14:37:43;10.30;99.90
71155;DHT22;59375;53.216;5.728;2023-04-26T14:40:09;10.10;99.90
71155;DHT22;59375;53.216;5.728;2023-04-26T14:42:35;10.20;99.90
71155;DHT22;59375;53.216;5.728;2023-04-26T14:45:00;10.40;99.90
71155;DHT22;59375;53.216;5.728;2023-04-26T14:47:26;10.70;99.90
71155;DHT22;59375;53.216;5.728;2023-04-26T14:49:51;10.80;99.90
71155;DHT22;59375;53.216;5.728;2023-04-26T14:52:17;10.90;99.90
71155;DHT22;59375;53.216;5.728;2023-04-26T14:54:42;10.90;99.90
71155;DHT22;59375;53.216;5.728;2023-04-26T14:57:08;10.90;99.90
71155;DHT22;59375;53.216;5.728;2023-04-26T14:59:34;10.90;99.90
71155;DHT22;59375;53.216;5.728;2023-04-26T15:02:00;10.90;99.90
71155;DHT22;59375;53.216;5.728;2023-04-26T15:04:26;10.70;99.90
71155;DHT22;59375;53.216;5.728;2023-04-26T15:06:51;10.40;99.90
71155;DHT22;59375;53.216;5.728;2023-04-26T15:09:17;10.50;99.90
71155;DHT22;59375;53.216;5.728;2023-04-26T15:11:42;10.50;99.90
71155;DHT22;59375;53.216;5.728;2023-04-26T15:14:08;10.50;99.90
71155;DHT22;59375;53.216;5.728;2023-04-26T15:16:33;10.40;99.90
71155;DHT22;59375;53.216;5.728;2023-04-26T15:18:59;10.50;99.90
71155;DHT22;59375;53.216;5.728;2023-04-26T15:21:24;10.40;99.90
71155;DHT22;59375;53.216;5.728;2023-04-26T15:23:49;10.30;99.90
71155;DHT22;59375;53.216;5.728;2023-04-26T15:26:15;10.10;99.90
71155;DHT22;59375;53.216;5.728;2023-04-26T15:28:40;10.00;99.90
71155;DHT22;59375;53.216;5.728;2023-04-26T15:31:07;9.90;99.90
71155;DHT22;59375;53.216;5.728;2023-04-26T15:33:33;9.80;99.90
71155;DHT22;59375;53.216;5.728;2023-04-26T15:35:58;9.80;99.90
71155;DHT22;59375;53.216;5.728;2023-04-26T15:38:24;9.70;99.90
71155;DHT22;59375;53.216;5.728;2023-04-26T15:40:50;9.70;99.90
71155;DHT22;59375;53.216;5.728;2023-04-26T15:43:17;9.60;99.90
71155;DHT22;59375;53.216;5.728;2023-04-26T15:45:42;9.70;99.90
71155;DHT22;59375;53.216;5.728;2023-04-26T15:48:09;9.60;99.90